sensor_id;sensor_type;location;lat;lon;timestamp;P1;durP1;ratioP1;P2;durP2;ratioP2
58196;SDS011;43999;51.660;5.616;2023-05-07T00:00:59;10.02;;;9.02;;
58196;SDS011;43999;51.660;5.616;2023-05-07T00:03:26;9.95;;;9.13;;
58196;SDS011;43999;51.660;5.616;2023-05-07T00:05:54;10.68;;;8.95;;
58196;SDS011;43999;51.660;5.616;2023-05-07T00:08:22;12.05;;;9.65;;
58196;SDS011;43999;51.660;5.616;2023-05-07T00:10:50;10.90;;;10.00;;
58196;SDS011;43999;51.660;5.616;2023-05-07T00:13:17;10.30;;;9.50;;
58196;SDS011;43999;51.660;5.616;2023-05-07T00:15:44;9.57;;;8.70;;
58196;SDS011;43999;51.660;5.616;2023-05-07T00:18:12;9.98;;;8.73;;
58196;SDS011;43999;51.660;5.616;2023-05-07T00:20:39;11.48;;;9.82;;
58196;SDS011;43999;51.660;5.616;2023-05-07T00:23:06;9.50;;;8.70;;
58196;SDS011;43999;51.660;5.616;2023-05-07T00:25:35;10.13;;;9.23;;
58196;SDS011;43999;51.660;5.616;2023-05-07T00:28:02;8.98;;;8.23;;
58196;SDS011;43999;51.660;5.616;2023-05-07T00:30:30;10.10;;;8.88;;
58196;SDS011;43999;51.660;5.616;2023-05-07T00:32:58;10.30;;;9.30;;
58196;SDS011;43999;51.660;5.616;2023-05-07T00:35:25;9.63;;;8.80;;
58196;SDS011;43999;51.660;5.616;2023-05-07T00:37:54;14.05;;;10.25;;
58196;SDS011;43999;51.660;5.616;2023-05-07T00:40:22;11.60;;;10.50;;
58196;SDS011;43999;51.660;5.616;2023-05-07T00:42:50;11.27;;;10.10;;
58196;SDS011;43999;51.660;5.616;2023-05-07T00:45:25;12.73;;;11.63;;
58196;SDS011;43999;51.660;5.616;2023-05-07T00:47:59;12.30;;;11.10;;
58196;SDS011;43999;51.660;5.616;2023-05-07T00:50:29;11.75;;;10.75;;
58196;SDS011;43999;51.660;5.616;2023-05-07T00:52:57;11.80;;;10.70;;
58196;SDS011;43999;51.660;5.616;2023-05-07T00:55:26;12.70;;;11.23;;
58196;SDS011;43999;51.660;5.616;2023-05-07T00:57:54;11.48;;;10.43;;
58196;SDS011;43999;51.660;5.616;2023-05-07T01:00:22;13.98;;;12.23;;
58196;SDS011;43999;51.660;5.616;2023-05-07T01:02:52;12.02;;;10.85;;
58196;SDS011;43999;51.660;5.616;2023-05-07T01:05:20;11.80;;;10.80;;
58196;SDS011;43999;51.660;5.616;2023-05-07T01:07:52;12.93;;;11.77;;
58196;SDS011;43999;51.660;5.616;2023-05-07T01:10:21;13.27;;;12.15;;
58196;SDS011;43999;51.660;5.616;2023-05-07T01:12:50;12.23;;;11.02;;
58196;SDS011;43999;51.660;5.616;2023-05-07T01:15:20;11.18;;;10.18;;
58196;SDS011;43999;51.660;5.616;2023-05-07T01:17:51;12.30;;;11.30;;
58196;SDS011;43999;51.660;5.616;2023-05-07T01:20:27;13.07;;;11.80;;
58196;SDS011;43999;51.660;5.616;2023-05-07T01:22:56;14.10;;;12.90;;
58196;SDS011;43999;51.660;5.616;2023-05-07T01:25:27;15.48;;;13.98;;
58196;SDS011;43999;51.660;5.616;2023-05-07T01:27:59;14.50;;;13.15;;
58196;SDS011;43999;51.660;5.616;2023-05-07T01:30:30;15.38;;;14.02;;
58196;SDS011;43999;51.660;5.616;2023-05-07T01:33:04;16.05;;;14.50;;
58196;SDS011;43999;51.660;5.616;2023-05-07T01:35:40;17.17;;;15.48;;
58196;SDS011;43999;51.660;5.616;2023-05-07T01:38:13;17.10;;;15.50;;
58196;SDS011;43999;51.660;5.616;2023-05-07T01:40:42;17.23;;;15.60;;
58196;SDS011;43999;51.660;5.616;2023-05-07T01:43:10;17.95;;;16.38;;
58196;SDS011;43999;51.660;5.616;2023-05-07T01:45:38;18.13;;;16.63;;
58196;SDS011;43999;51.660;5.616;2023-05-07T01:48:09;20.33;;;18.30;;
58196;SDS011;43999;51.660;5.616;2023-05-07T01:50:39;18.85;;;16.75;;
58196;SDS011;43999;51.660;5.616;2023-05-07T01:53:09;19.30;;;17.40;;
58196;SDS011;43999;51.660;5.616;2023-05-07T01:55:36;21.58;;;18.13;;
58196;SDS011;43999;51.660;5.616;2023-05-07T01:58:04;18.40;;;16.90;;
58196;SDS011;43999;51.660;5.616;2023-05-07T02:00:31;20.13;;;18.20;;
58196;SDS011;43999;51.660;5.616;2023-05-07T02:02:59;20.58;;;18.75;;
58196;SDS011;43999;51.660;5.616;2023-05-07T02:05:40;19.63;;;17.65;;
58196;SDS011;43999;51.660;5.616;2023-05-07T02:08:14;19.15;;;17.25;;
58196;SDS011;43999;51.660;5.616;2023-05-07T02:10:41;18.92;;;17.02;;
58196;SDS011;43999;51.660;5.616;2023-05-07T02:13:09;20.83;;;19.05;;
58196;SDS011;43999;51.660;5.616;2023-05-07T02:15:36;23.17;;;20.95;;
58196;SDS011;43999;51.660;5.616;2023-05-07T02:18:04;21.00;;;19.10;;
58196;SDS011;43999;51.660;5.616;2023-05-07T02:20:36;20.63;;;18.83;;
58196;SDS011;43999;51.660;5.616;2023-05-07T02:23:03;24.58;;;22.30;;
58196;SDS011;43999;51.660;5.616;2023-05-07T02:25:31;23.42;;;21.40;;
58196;SDS011;43999;51.660;5.616;2023-05-07T02:27:59;24.95;;;22.58;;
58196;SDS011;43999;51.660;5.616;2023-05-07T02:30:52;22.90;;;20.92;;
58196;SDS011;43999;51.660;5.616;2023-05-07T02:33:20;26.52;;;23.92;;
58196;SDS011;43999;51.660;5.616;2023-05-07T02:35:47;24.70;;;22.35;;
58196;SDS011;43999;51.660;5.616;2023-05-07T02:38:15;25.35;;;23.25;;
58196;SDS011;43999;51.660;5.616;2023-05-07T02:40:43;22.77;;;20.67;;
58196;SDS011;43999;51.660;5.616;2023-05-07T02:43:10;27.55;;;25.00;;
58196;SDS011;43999;51.660;5.616;2023-05-07T02:45:41;24.23;;;22.17;;
58196;SDS011;43999;51.660;5.616;2023-05-07T02:48:11;25.30;;;22.98;;
58196;SDS011;43999;51.660;5.616;2023-05-07T02:50:38;29.10;;;26.52;;
58196;SDS011;43999;51.660;5.616;2023-05-07T02:53:05;22.08;;;19.95;;
58196;SDS011;43999;51.660;5.616;2023-05-07T02:55:33;27.25;;;24.85;;
58196;SDS011;43999;51.660;5.616;2023-05-07T02:58:00;27.08;;;24.48;;
58196;SDS011;43999;51.660;5.616;2023-05-07T03:00:30;22.92;;;20.63;;
58196;SDS011;43999;51.660;5.616;2023-05-07T03:03:17;21.38;;;19.25;;
58196;SDS011;43999;51.660;5.616;2023-05-07T03:05:44;25.63;;;23.15;;
58196;SDS011;43999;51.660;5.616;2023-05-07T03:08:12;29.38;;;26.65;;
58196;SDS011;43999;51.660;5.616;2023-05-07T03:10:39;26.85;;;24.58;;
58196;SDS011;43999;51.660;5.616;2023-05-07T03:13:07;29.80;;;26.92;;
58196;SDS011;43999;51.660;5.616;2023-05-07T03:15:34;29.52;;;26.70;;
58196;SDS011;43999;51.660;5.616;2023-05-07T03:18:01;31.73;;;28.75;;
58196;SDS011;43999;51.660;5.616;2023-05-07T03:20:29;29.50;;;26.65;;
58196;SDS011;43999;51.660;5.616;2023-05-07T03:22:57;31.58;;;28.77;;
58196;SDS011;43999;51.660;5.616;2023-05-07T03:25:24;26.73;;;24.50;;
58196;SDS011;43999;51.660;5.616;2023-05-07T03:27:52;30.73;;;27.90;;
58196;SDS011;43999;51.660;5.616;2023-05-07T03:30:23;31.35;;;28.27;;
58196;SDS011;43999;51.660;5.616;2023-05-07T03:32:51;26.80;;;24.17;;
58196;SDS011;43999;51.660;5.616;2023-05-07T03:35:23;24.52;;;22.13;;
58196;SDS011;43999;51.660;5.616;2023-05-07T03:37:50;31.33;;;28.55;;
58196;SDS011;43999;51.660;5.616;2023-05-07T03:40:19;32.78;;;29.70;;
58196;SDS011;43999;51.660;5.616;2023-05-07T03:42:50;30.67;;;27.67;;
58196;SDS011;43999;51.660;5.616;2023-05-07T03:48:07;31.42;;;28.70;;
58196;SDS011;43999;51.660;5.616;2023-05-07T03:50:34;32.67;;;29.85;;
58196;SDS011;43999;51.660;5.616;2023-05-07T03:53:05;33.88;;;30.77;;
58196;SDS011;43999;51.660;5.616;2023-05-07T03:55:37;31.48;;;28.73;;
58196;SDS011;43999;51.660;5.616;2023-05-07T03:58:05;32.47;;;29.45;;
58196;SDS011;43999;51.660;5.616;2023-05-07T04:00:32;34.30;;;31.17;;
58196;SDS011;43999;51.660;5.616;2023-05-07T04:03:13;33.20;;;30.08;;
58196;SDS011;43999;51.660;5.616;2023-05-07T04:05:41;34.67;;;31.42;;
58196;SDS011;43999;51.660;5.616;2023-05-07T04:08:08;33.95;;;31.02;;
58196;SDS011;43999;51.660;5.616;2023-05-07T04:10:41;34.92;;;31.63;;
58196;SDS011;43999;51.660;5.616;2023-05-07T04:13:10;36.65;;;33.40;;
58196;SDS011;43999;51.660;5.616;2023-05-07T04:15:37;36.30;;;32.83;;
58196;SDS011;43999;51.660;5.616;2023-05-07T04:18:17;36.45;;;33.00;;
58196;SDS011;43999;51.660;5.616;2023-05-07T04:20:47;37.50;;;33.83;;
58196;SDS011;43999;51.660;5.616;2023-05-07T04:23:18;35.20;;;31.60;;
58196;SDS011;43999;51.660;5.616;2023-05-07T04:25:45;42.38;;;38.50;;
58196;SDS011;43999;51.660;5.616;2023-05-07T04:28:21;35.33;;;32.10;;
58196;SDS011;43999;51.660;5.616;2023-05-07T04:30:49;37.92;;;34.28;;
58196;SDS011;43999;51.660;5.616;2023-05-07T04:33:17;39.80;;;36.20;;
58196;SDS011;43999;51.660;5.616;2023-05-07T04:35:46;37.30;;;33.97;;
58196;SDS011;43999;51.660;5.616;2023-05-07T04:38:14;37.47;;;33.80;;
58196;SDS011;43999;51.660;5.616;2023-05-07T04:40:42;34.33;;;30.98;;
58196;SDS011;43999;51.660;5.616;2023-05-07T04:43:13;38.50;;;35.03;;
58196;SDS011;43999;51.660;5.616;2023-05-07T04:45:45;40.58;;;36.90;;
58196;SDS011;43999;51.660;5.616;2023-05-07T04:48:12;45.03;;;41.10;;
58196;SDS011;43999;51.660;5.616;2023-05-07T04:50:41;39.70;;;35.83;;
58196;SDS011;43999;51.660;5.616;2023-05-07T04:53:10;40.20;;;36.63;;
58196;SDS011;43999;51.660;5.616;2023-05-07T04:55:39;38.78;;;35.28;;
58196;SDS011;43999;51.660;5.616;2023-05-07T04:58:06;40.05;;;36.63;;
58196;SDS011;43999;51.660;5.616;2023-05-07T05:00:36;37.63;;;33.88;;
58196;SDS011;43999;51.660;5.616;2023-05-07T05:03:08;38.22;;;34.80;;
58196;SDS011;43999;51.660;5.616;2023-05-07T05:05:37;44.88;;;40.78;;
58196;SDS011;43999;51.660;5.616;2023-05-07T05:08:05;39.40;;;35.67;;
58196;SDS011;43999;51.660;5.616;2023-05-07T05:10:35;36.03;;;31.67;;
58196;SDS011;43999;51.660;5.616;2023-05-07T05:13:05;41.53;;;37.72;;
58196;SDS011;43999;51.660;5.616;2023-05-07T05:15:34;37.20;;;33.90;;
58196;SDS011;43999;51.660;5.616;2023-05-07T05:18:02;40.47;;;36.95;;
58196;SDS011;43999;51.660;5.616;2023-05-07T05:20:30;41.47;;;37.70;;
58196;SDS011;43999;51.660;5.616;2023-05-07T05:22:57;38.88;;;35.45;;
58196;SDS011;43999;51.660;5.616;2023-05-07T05:25:24;37.40;;;33.90;;
58196;SDS011;43999;51.660;5.616;2023-05-07T05:27:52;36.83;;;33.33;;
58196;SDS011;43999;51.660;5.616;2023-05-07T05:30:19;40.03;;;36.53;;
58196;SDS011;43999;51.660;5.616;2023-05-07T05:32:48;36.35;;;32.72;;
58196;SDS011;43999;51.660;5.616;2023-05-07T05:35:16;36.15;;;32.85;;
58196;SDS011;43999;51.660;5.616;2023-05-07T05:37:43;40.00;;;36.55;;
58196;SDS011;43999;51.660;5.616;2023-05-07T05:40:11;35.28;;;32.17;;
58196;SDS011;43999;51.660;5.616;2023-05-07T05:42:39;37.78;;;34.40;;
58196;SDS011;43999;51.660;5.616;2023-05-07T05:45:08;38.00;;;34.75;;
58196;SDS011;43999;51.660;5.616;2023-05-07T05:47:37;36.83;;;33.38;;
58196;SDS011;43999;51.660;5.616;2023-05-07T05:50:06;36.70;;;33.25;;
58196;SDS011;43999;51.660;5.616;2023-05-07T05:52:36;38.08;;;34.75;;
58196;SDS011;43999;51.660;5.616;2023-05-07T05:55:03;34.65;;;31.65;;
58196;SDS011;43999;51.660;5.616;2023-05-07T05:57:33;33.33;;;30.33;;
58196;SDS011;43999;51.660;5.616;2023-05-07T06:00:01;35.25;;;32.03;;
58196;SDS011;43999;51.660;5.616;2023-05-07T06:02:32;36.88;;;33.65;;
58196;SDS011;43999;51.660;5.616;2023-05-07T06:05:00;33.35;;;30.23;;
58196;SDS011;43999;51.660;5.616;2023-05-07T06:07:27;33.72;;;30.50;;
58196;SDS011;43999;51.660;5.616;2023-05-07T06:09:54;37.55;;;34.35;;
58196;SDS011;43999;51.660;5.616;2023-05-07T06:12:22;34.78;;;31.60;;
58196;SDS011;43999;51.660;5.616;2023-05-07T06:14:49;36.97;;;33.55;;
58196;SDS011;43999;51.660;5.616;2023-05-07T06:17:17;36.75;;;33.17;;
58196;SDS011;43999;51.660;5.616;2023-05-07T06:19:49;34.08;;;30.98;;
58196;SDS011;43999;51.660;5.616;2023-05-07T06:22:18;36.80;;;33.25;;
58196;SDS011;43999;51.660;5.616;2023-05-07T06:24:45;33.13;;;30.17;;
58196;SDS011;43999;51.660;5.616;2023-05-07T06:27:13;33.08;;;29.88;;
58196;SDS011;43999;51.660;5.616;2023-05-07T06:29:40;31.98;;;29.02;;
58196;SDS011;43999;51.660;5.616;2023-05-07T06:32:13;36.63;;;32.83;;
58196;SDS011;43999;51.660;5.616;2023-05-07T06:34:42;33.78;;;30.77;;
58196;SDS011;43999;51.660;5.616;2023-05-07T06:37:11;33.13;;;30.20;;
58196;SDS011;43999;51.660;5.616;2023-05-07T06:40:07;34.38;;;31.10;;
58196;SDS011;43999;51.660;5.616;2023-05-07T06:42:38;33.35;;;30.30;;
58196;SDS011;43999;51.660;5.616;2023-05-07T06:45:26;31.65;;;28.95;;
58196;SDS011;43999;51.660;5.616;2023-05-07T06:47:55;26.50;;;24.05;;
58196;SDS011;43999;51.660;5.616;2023-05-07T06:50:25;32.75;;;30.02;;
58196;SDS011;43999;51.660;5.616;2023-05-07T06:52:56;28.80;;;26.15;;
58196;SDS011;43999;51.660;5.616;2023-05-07T06:55:24;30.23;;;27.73;;
58196;SDS011;43999;51.660;5.616;2023-05-07T06:57:53;28.05;;;25.45;;
58196;SDS011;43999;51.660;5.616;2023-05-07T07:00:22;27.27;;;24.90;;
58196;SDS011;43999;51.660;5.616;2023-05-07T07:02:53;28.67;;;26.25;;
58196;SDS011;43999;51.660;5.616;2023-05-07T07:05:25;29.15;;;26.35;;
58196;SDS011;43999;51.660;5.616;2023-05-07T07:07:53;29.58;;;27.05;;
58196;SDS011;43999;51.660;5.616;2023-05-07T07:10:21;28.40;;;25.90;;
58196;SDS011;43999;51.660;5.616;2023-05-07T07:12:51;27.95;;;25.40;;
58196;SDS011;43999;51.660;5.616;2023-05-07T07:15:20;27.40;;;25.02;;
58196;SDS011;43999;51.660;5.616;2023-05-07T07:17:49;29.02;;;26.52;;
58196;SDS011;43999;51.660;5.616;2023-05-07T07:20:17;29.50;;;26.80;;
58196;SDS011;43999;51.660;5.616;2023-05-07T07:22:45;29.17;;;26.67;;
58196;SDS011;43999;51.660;5.616;2023-05-07T07:25:14;29.45;;;26.95;;
58196;SDS011;43999;51.660;5.616;2023-05-07T07:27:42;29.27;;;26.48;;
58196;SDS011;43999;51.660;5.616;2023-05-07T07:30:11;28.77;;;26.05;;
58196;SDS011;43999;51.660;5.616;2023-05-07T07:32:40;26.75;;;24.30;;
58196;SDS011;43999;51.660;5.616;2023-05-07T07:35:09;28.08;;;25.75;;
58196;SDS011;43999;51.660;5.616;2023-05-07T07:37:38;26.50;;;24.27;;
58196;SDS011;43999;51.660;5.616;2023-05-07T07:40:05;28.05;;;25.33;;
58196;SDS011;43999;51.660;5.616;2023-05-07T07:42:35;27.85;;;25.40;;
58196;SDS011;43999;51.660;5.616;2023-05-07T07:45:03;29.38;;;26.42;;
58196;SDS011;43999;51.660;5.616;2023-05-07T07:47:34;27.92;;;25.55;;
58196;SDS011;43999;51.660;5.616;2023-05-07T07:50:01;27.80;;;25.02;;
58196;SDS011;43999;51.660;5.616;2023-05-07T07:52:29;26.17;;;23.52;;
58196;SDS011;43999;51.660;5.616;2023-05-07T07:54:59;23.27;;;21.17;;
58196;SDS011;43999;51.660;5.616;2023-05-07T07:57:27;23.60;;;21.42;;
58196;SDS011;43999;51.660;5.616;2023-05-07T07:59:54;25.38;;;23.05;;
58196;SDS011;43999;51.660;5.616;2023-05-07T08:02:23;23.38;;;21.38;;
58196;SDS011;43999;51.660;5.616;2023-05-07T08:04:50;22.30;;;20.27;;
58196;SDS011;43999;51.660;5.616;2023-05-07T08:07:18;21.52;;;19.50;;
58196;SDS011;43999;51.660;5.616;2023-05-07T08:09:48;22.92;;;21.00;;
58196;SDS011;43999;51.660;5.616;2023-05-07T08:12:19;23.65;;;21.50;;
58196;SDS011;43999;51.660;5.616;2023-05-07T08:14:47;22.70;;;20.77;;
58196;SDS011;43999;51.660;5.616;2023-05-07T08:17:15;24.50;;;22.40;;
58196;SDS011;43999;51.660;5.616;2023-05-07T08:19:44;22.77;;;20.88;;
58196;SDS011;43999;51.660;5.616;2023-05-07T08:22:13;22.48;;;20.42;;
58196;SDS011;43999;51.660;5.616;2023-05-07T08:24:41;23.52;;;21.25;;
58196;SDS011;43999;51.660;5.616;2023-05-07T08:27:10;21.60;;;19.80;;
58196;SDS011;43999;51.660;5.616;2023-05-07T08:29:40;20.48;;;18.60;;
58196;SDS011;43999;51.660;5.616;2023-05-07T08:32:07;22.83;;;20.55;;
58196;SDS011;43999;51.660;5.616;2023-05-07T08:34:35;21.27;;;19.30;;
58196;SDS011;43999;51.660;5.616;2023-05-07T08:37:04;20.45;;;18.73;;
58196;SDS011;43999;51.660;5.616;2023-05-07T08:39:32;21.17;;;19.15;;
58196;SDS011;43999;51.660;5.616;2023-05-07T08:42:00;22.75;;;20.73;;
58196;SDS011;43999;51.660;5.616;2023-05-07T08:44:33;18.73;;;17.02;;
58196;SDS011;43999;51.660;5.616;2023-05-07T08:47:02;20.45;;;18.75;;
58196;SDS011;43999;51.660;5.616;2023-05-07T08:49:34;21.88;;;20.00;;
58196;SDS011;43999;51.660;5.616;2023-05-07T08:52:03;18.90;;;17.27;;
58196;SDS011;43999;51.660;5.616;2023-05-07T08:54:33;19.13;;;17.63;;
58196;SDS011;43999;51.660;5.616;2023-05-07T08:57:05;16.55;;;15.15;;
58196;SDS011;43999;51.660;5.616;2023-05-07T08:59:34;17.55;;;16.05;;
58196;SDS011;43999;51.660;5.616;2023-05-07T09:02:04;17.80;;;16.38;;
58196;SDS011;43999;51.660;5.616;2023-05-07T09:04:38;16.67;;;15.35;;
58196;SDS011;43999;51.660;5.616;2023-05-07T09:07:07;18.80;;;17.23;;
58196;SDS011;43999;51.660;5.616;2023-05-07T09:09:39;16.85;;;15.38;;
58196;SDS011;43999;51.660;5.616;2023-05-07T09:12:07;18.38;;;16.67;;
58196;SDS011;43999;51.660;5.616;2023-05-07T09:14:36;18.27;;;16.60;;
58196;SDS011;43999;51.660;5.616;2023-05-07T09:17:05;20.10;;;18.38;;
58196;SDS011;43999;51.660;5.616;2023-05-07T09:19:33;21.20;;;19.40;;
58196;SDS011;43999;51.660;5.616;2023-05-07T09:22:04;20.45;;;18.75;;
58196;SDS011;43999;51.660;5.616;2023-05-07T09:24:49;17.48;;;16.08;;
58196;SDS011;43999;51.660;5.616;2023-05-07T09:27:21;16.83;;;15.40;;
58196;SDS011;43999;51.660;5.616;2023-05-07T09:29:49;18.20;;;16.77;;
58196;SDS011;43999;51.660;5.616;2023-05-07T09:32:17;19.83;;;18.13;;
58196;SDS011;43999;51.660;5.616;2023-05-07T09:34:45;19.25;;;17.13;;
58196;SDS011;43999;51.660;5.616;2023-05-07T09:37:15;19.10;;;17.50;;
58196;SDS011;43999;51.660;5.616;2023-05-07T09:39:48;18.25;;;16.48;;
58196;SDS011;43999;51.660;5.616;2023-05-07T09:42:23;18.13;;;16.53;;
58196;SDS011;43999;51.660;5.616;2023-05-07T09:44:55;16.45;;;15.05;;
58196;SDS011;43999;51.660;5.616;2023-05-07T09:47:26;17.02;;;15.43;;
58196;SDS011;43999;51.660;5.616;2023-05-07T09:50:01;16.52;;;15.20;;
58196;SDS011;43999;51.660;5.616;2023-05-07T09:52:39;17.50;;;15.95;;
58196;SDS011;43999;51.660;5.616;2023-05-07T09:55:09;21.10;;;19.48;;
58196;SDS011;43999;51.660;5.616;2023-05-07T09:57:39;19.58;;;18.08;;
58196;SDS011;43999;51.660;5.616;2023-05-07T10:00:10;19.40;;;17.90;;
58196;SDS011;43999;51.660;5.616;2023-05-07T10:02:57;15.50;;;14.10;;
58196;SDS011;43999;51.660;5.616;2023-05-07T10:05:36;17.25;;;15.70;;
58196;SDS011;43999;51.660;5.616;2023-05-07T10:08:05;16.85;;;15.35;;
58196;SDS011;43999;51.660;5.616;2023-05-07T10:10:38;18.70;;;17.15;;
58196;SDS011;43999;51.660;5.616;2023-05-07T10:13:09;17.70;;;16.20;;
58196;SDS011;43999;51.660;5.616;2023-05-07T10:15:42;16.92;;;15.63;;
58196;SDS011;43999;51.660;5.616;2023-05-07T10:18:11;19.98;;;18.48;;
58196;SDS011;43999;51.660;5.616;2023-05-07T10:20:42;17.73;;;16.38;;
58196;SDS011;43999;51.660;5.616;2023-05-07T10:23:16;18.02;;;16.52;;
58196;SDS011;43999;51.660;5.616;2023-05-07T10:26:02;18.25;;;16.75;;
58196;SDS011;43999;51.660;5.616;2023-05-07T10:28:37;16.88;;;15.57;;
58196;SDS011;43999;51.660;5.616;2023-05-07T10:34:43;17.98;;;16.58;;
58196;SDS011;43999;51.660;5.616;2023-05-07T10:37:17;18.83;;;17.42;;
58196;SDS011;43999;51.660;5.616;2023-05-07T10:39:48;17.27;;;15.93;;
58196;SDS011;43999;51.660;5.616;2023-05-07T10:42:17;18.88;;;17.17;;
58196;SDS011;43999;51.660;5.616;2023-05-07T10:44:49;17.23;;;15.77;;
58196;SDS011;43999;51.660;5.616;2023-05-07T10:47:30;17.23;;;15.50;;
58196;SDS011;43999;51.660;5.616;2023-05-07T10:52:39;16.98;;;15.48;;
58196;SDS011;43999;51.660;5.616;2023-05-07T10:58:29;15.57;;;14.07;;
58196;SDS011;43999;51.660;5.616;2023-05-07T11:01:19;19.23;;;17.45;;
58196;SDS011;43999;51.660;5.616;2023-05-07T11:04:24;17.02;;;15.65;;
58196;SDS011;43999;51.660;5.616;2023-05-07T11:07:25;15.02;;;13.90;;
58196;SDS011;43999;51.660;5.616;2023-05-07T11:10:06;17.00;;;15.52;;
58196;SDS011;43999;51.660;5.616;2023-05-07T11:12:50;15.68;;;14.38;;
58196;SDS011;43999;51.660;5.616;2023-05-07T11:15:39;14.27;;;12.93;;
58196;SDS011;43999;51.660;5.616;2023-05-07T11:18:23;14.52;;;13.05;;
58196;SDS011;43999;51.660;5.616;2023-05-07T11:20:58;15.40;;;14.20;;
58196;SDS011;43999;51.660;5.616;2023-05-07T11:26:29;19.88;;;14.80;;
58196;SDS011;43999;51.660;5.616;2023-05-07T11:29:16;17.13;;;15.75;;
58196;SDS011;43999;51.660;5.616;2023-05-07T11:31:54;17.65;;;16.25;;
58196;SDS011;43999;51.660;5.616;2023-05-07T11:34:50;15.93;;;14.63;;
58196;SDS011;43999;51.660;5.616;2023-05-07T11:37:25;14.45;;;13.35;;
58196;SDS011;43999;51.660;5.616;2023-05-07T11:40:06;14.63;;;13.07;;
58196;SDS011;43999;51.660;5.616;2023-05-07T11:42:40;12.75;;;11.48;;
58196;SDS011;43999;51.660;5.616;2023-05-07T11:45:09;9.68;;;7.25;;
58196;SDS011;43999;51.660;5.616;2023-05-07T11:47:37;11.73;;;8.80;;
58196;SDS011;43999;51.660;5.616;2023-05-07T11:50:10;9.05;;;8.30;;
58196;SDS011;43999;51.660;5.616;2023-05-07T11:52:37;11.10;;;10.10;;
58196;SDS011;43999;51.660;5.616;2023-05-07T11:55:06;11.73;;;10.55;;
58196;SDS011;43999;51.660;5.616;2023-05-07T11:57:35;12.25;;;11.05;;
58196;SDS011;43999;51.660;5.616;2023-05-07T12:00:02;11.82;;;10.68;;
58196;SDS011;43999;51.660;5.616;2023-05-07T12:02:40;15.45;;;13.85;;
58196;SDS011;43999;51.660;5.616;2023-05-07T12:05:08;13.05;;;11.85;;
58196;SDS011;43999;51.660;5.616;2023-05-07T12:07:37;12.48;;;10.82;;
58196;SDS011;43999;51.660;5.616;2023-05-07T12:10:05;11.40;;;10.30;;
58196;SDS011;43999;51.660;5.616;2023-05-07T12:12:38;10.98;;;10.07;;
58196;SDS011;43999;51.660;5.616;2023-05-07T12:15:09;10.25;;;9.27;;
58196;SDS011;43999;51.660;5.616;2023-05-07T12:17:38;12.60;;;9.70;;
58196;SDS011;43999;51.660;5.616;2023-05-07T12:20:07;10.82;;;9.77;;
58196;SDS011;43999;51.660;5.616;2023-05-07T12:22:37;10.00;;;9.20;;
58196;SDS011;43999;51.660;5.616;2023-05-07T12:25:04;11.13;;;10.13;;
58196;SDS011;43999;51.660;5.616;2023-05-07T12:27:40;10.32;;;9.30;;
58196;SDS011;43999;51.660;5.616;2023-05-07T12:30:09;11.35;;;8.95;;
58196;SDS011;43999;51.660;5.616;2023-05-07T12:32:38;10.02;;;9.10;;
58196;SDS011;43999;51.660;5.616;2023-05-07T12:35:06;9.95;;;8.98;;
58196;SDS011;43999;51.660;5.616;2023-05-07T12:37:37;9.88;;;8.98;;
58196;SDS011;43999;51.660;5.616;2023-05-07T12:42:36;15.80;;;14.27;;
58196;SDS011;43999;51.660;5.616;2023-05-07T12:47:44;9.23;;;7.53;;
58196;SDS011;43999;51.660;5.616;2023-05-07T12:50:15;10.60;;;8.23;;
58196;SDS011;43999;51.660;5.616;2023-05-07T12:52:44;10.23;;;9.05;;
58196;SDS011;43999;51.660;5.616;2023-05-07T12:55:14;10.45;;;9.57;;
58196;SDS011;43999;51.660;5.616;2023-05-07T12:57:45;8.30;;;7.32;;
58196;SDS011;43999;51.660;5.616;2023-05-07T13:00:18;9.48;;;8.50;;
58196;SDS011;43999;51.660;5.616;2023-05-07T13:03:05;8.50;;;7.72;;
58196;SDS011;43999;51.660;5.616;2023-05-07T13:05:32;8.52;;;7.63;;
58196;SDS011;43999;51.660;5.616;2023-05-07T13:08:00;7.78;;;7.00;;
58196;SDS011;43999;51.660;5.616;2023-05-07T13:10:27;7.90;;;7.10;;
58196;SDS011;43999;51.660;5.616;2023-05-07T13:12:55;8.10;;;6.68;;
58196;SDS011;43999;51.660;5.616;2023-05-07T13:15:22;8.18;;;6.30;;
58196;SDS011;43999;51.660;5.616;2023-05-07T13:17:49;8.73;;;7.30;;
58196;SDS011;43999;51.660;5.616;2023-05-07T13:20:17;10.52;;;6.90;;
58196;SDS011;43999;51.660;5.616;2023-05-07T13:22:46;9.93;;;8.90;;
58196;SDS011;43999;51.660;5.616;2023-05-07T13:25:15;7.93;;;7.20;;
58196;SDS011;43999;51.660;5.616;2023-05-07T13:27:44;9.13;;;7.82;;
58196;SDS011;43999;51.660;5.616;2023-05-07T13:30:15;9.45;;;8.48;;
58196;SDS011;43999;51.660;5.616;2023-05-07T13:33:03;10.25;;;9.27;;
58196;SDS011;43999;51.660;5.616;2023-05-07T13:35:31;4.22;;;3.58;;
58196;SDS011;43999;51.660;5.616;2023-05-07T13:38:01;2.90;;;2.38;;
58196;SDS011;43999;51.660;5.616;2023-05-07T13:40:31;2.92;;;2.50;;
58196;SDS011;43999;51.660;5.616;2023-05-07T13:42:59;2.55;;;2.35;;
58196;SDS011;43999;51.660;5.616;2023-05-07T13:45:30;2.35;;;1.88;;
58196;SDS011;43999;51.660;5.616;2023-05-07T13:47:58;2.50;;;1.58;;
58196;SDS011;43999;51.660;5.616;2023-05-07T13:50:27;3.38;;;2.22;;
58196;SDS011;43999;51.660;5.616;2023-05-07T13:52:56;2.85;;;2.03;;
58196;SDS011;43999;51.660;5.616;2023-05-07T13:55:24;2.65;;;1.67;;
58196;SDS011;43999;51.660;5.616;2023-05-07T13:57:56;5.32;;;1.88;;
58196;SDS011;43999;51.660;5.616;2023-05-07T14:00:32;2.92;;;1.60;;
58196;SDS011;43999;51.660;5.616;2023-05-07T14:03:00;4.82;;;2.30;;
58196;SDS011;43999;51.660;5.616;2023-05-07T14:05:27;5.43;;;2.60;;
58196;SDS011;43999;51.660;5.616;2023-05-07T14:07:59;5.05;;;2.55;;
58196;SDS011;43999;51.660;5.616;2023-05-07T14:10:28;4.63;;;3.60;;
58196;SDS011;43999;51.660;5.616;2023-05-07T14:12:56;5.18;;;2.63;;
58196;SDS011;43999;51.660;5.616;2023-05-07T14:15:23;6.15;;;3.47;;
58196;SDS011;43999;51.660;5.616;2023-05-07T14:17:51;6.18;;;3.92;;
58196;SDS011;43999;51.660;5.616;2023-05-07T14:20:18;5.53;;;4.85;;
58196;SDS011;43999;51.660;5.616;2023-05-07T14:22:47;6.28;;;4.35;;
58196;SDS011;43999;51.660;5.616;2023-05-07T14:25:14;5.85;;;4.25;;
58196;SDS011;43999;51.660;5.616;2023-05-07T14:27:48;7.20;;;6.25;;
58196;SDS011;43999;51.660;5.616;2023-05-07T14:30:15;9.38;;;6.43;;
58196;SDS011;43999;51.660;5.616;2023-05-07T14:32:43;7.22;;;5.95;;
58196;SDS011;43999;51.660;5.616;2023-05-07T14:35:10;8.70;;;7.15;;
58196;SDS011;43999;51.660;5.616;2023-05-07T14:37:38;9.20;;;8.30;;
58196;SDS011;43999;51.660;5.616;2023-05-07T14:40:06;13.13;;;7.95;;
58196;SDS011;43999;51.660;5.616;2023-05-07T14:42:35;10.93;;;8.65;;
58196;SDS011;43999;51.660;5.616;2023-05-07T14:45:05;8.25;;;6.50;;
58196;SDS011;43999;51.660;5.616;2023-05-07T14:47:33;8.32;;;7.55;;
58196;SDS011;43999;51.660;5.616;2023-05-07T14:50:01;10.20;;;9.07;;
58196;SDS011;43999;51.660;5.616;2023-05-07T14:52:28;12.20;;;9.10;;
58196;SDS011;43999;51.660;5.616;2023-05-07T14:54:56;12.25;;;10.13;;
58196;SDS011;43999;51.660;5.616;2023-05-07T14:57:23;9.93;;;9.02;;
58196;SDS011;43999;51.660;5.616;2023-05-07T14:59:50;10.20;;;8.70;;
58196;SDS011;43999;51.660;5.616;2023-05-07T15:02:18;17.48;;;12.77;;
58196;SDS011;43999;51.660;5.616;2023-05-07T15:04:46;13.20;;;11.20;;